createdAt,value
2017-08-09T00:00:52.585Z,999.3
2017-08-09T00:01:53.982Z,999.3
2017-08-09T00:02:55.376Z,999.3
2017-08-09T00:03:56.771Z,999.3
2017-08-09T00:04:58.171Z,999.4
2017-08-09T00:05:59.565Z,999.4
2017-08-09T00:07:00.964Z,999.4
2017-08-09T00:08:02.357Z,999.4
2017-08-09T00:09:03.750Z,999.4
2017-08-09T00:10:05.145Z,999.4
2017-08-09T00:11:06.542Z,999.4
2017-08-09T00:12:07.938Z,999.4
2017-08-09T00:13:09.332Z,999.5
2017-08-09T00:14:10.732Z,999.5
2017-08-09T00:15:12.124Z,999.5
2017-08-09T00:16:13.519Z,999.5
2017-08-09T00:17:14.913Z,999.6
2017-08-09T00:18:16.309Z,999.6
2017-08-09T00:19:17.705Z,999.6
2017-08-09T00:20:19.101Z,999.6
2017-08-09T00:21:20.497Z,999.6
2017-08-09T00:22:21.891Z,999.5
2017-08-09T00:23:23.286Z,999.5
2017-08-09T00:24:24.679Z,999.6
2017-08-09T00:25:26.076Z,999.6
2017-08-09T00:26:27.475Z,999.6
2017-08-09T00:27:28.869Z,999.6
2017-08-09T00:28:30.272Z,999.6
2017-08-09T00:29:31.662Z,999.7
2017-08-09T00:30:33.058Z,999.6
2017-08-09T00:31:34.452Z,999.6
2017-08-09T00:32:35.846Z,999.6
2017-08-09T00:33:37.243Z,999.5
2017-08-09T00:34:38.637Z,999.6
2017-08-09T00:35:40.030Z,999.5
2017-08-09T00:36:41.421Z,999.5
2017-08-09T00:37:42.816Z,999.5
2017-08-09T00:38:44.209Z,999.6
2017-08-09T00:39:45.606Z,999.6
2017-08-09T00:40:47.001Z,999.5
2017-08-09T00:41:48.397Z,999.5
2017-08-09T00:42:49.793Z,999.6
2017-08-09T00:43:51.182Z,999.6
2017-08-09T00:44:52.577Z,999.6
2017-08-09T00:45:53.971Z,999.6
2017-08-09T00:46:55.366Z,999.6
2017-08-09T00:47:56.766Z,999.6
2017-08-09T00:48:58.161Z,999.6
2017-08-09T00:49:59.556Z,999.6
2017-08-09T00:51:00.953Z,999.6
2017-08-09T00:52:02.346Z,999.6
2017-08-09T00:53:03.741Z,999.6
2017-08-09T00:54:05.136Z,999.6
2017-08-09T00:55:06.532Z,999.7
2017-08-09T00:56:07.928Z,999.7
2017-08-09T00:57:09.321Z,999.7
2017-08-09T00:58:10.715Z,999.7
2017-08-09T00:59:12.107Z,999.8
2017-08-09T01:00:13.504Z,999.7
2017-08-09T01:01:14.900Z,999.8
2017-08-09T01:02:16.295Z,999.8
2017-08-09T01:03:17.688Z,999.8
2017-08-09T01:04:19.082Z,999.9
2017-08-09T01:05:20.476Z,999.9
2017-08-09T01:06:21.871Z,999.9
2017-08-09T01:07:23.268Z,999.9
2017-08-09T01:08:24.661Z,1000.0
2017-08-09T01:09:26.065Z,1000.0
2017-08-09T01:10:27.458Z,999.9
2017-08-09T01:11:28.850Z,999.9
2017-08-09T01:12:30.245Z,999.9
2017-08-09T01:13:31.639Z,999.9
2017-08-09T01:14:33.067Z,1000.0
2017-08-09T01:15:34.429Z,1000.0
2017-08-09T01:16:35.831Z,1000.0
2017-08-09T01:17:37.226Z,1000.0
2017-08-09T01:18:38.622Z,1000.0
2017-08-09T01:19:40.018Z,1000.0
2017-08-09T01:20:41.411Z,1000.0
2017-08-09T01:21:42.806Z,1000.1
2017-08-09T01:22:44.207Z,1000.0
2017-08-09T01:23:45.605Z,1000.1
2017-08-09T01:24:47.003Z,1000.1
2017-08-09T01:25:48.394Z,1000.0
2017-08-09T01:26:49.791Z,1000.1
2017-08-09T01:27:51.186Z,1000.1
2017-08-09T01:28:52.583Z,1000.1
2017-08-09T01:29:53.983Z,1000.0
2017-08-09T01:30:55.379Z,1000.0
2017-08-09T01:31:56.776Z,1000.0
2017-08-09T01:32:58.170Z,1000.0
2017-08-09T01:33:59.565Z,1000.0
2017-08-09T01:35:00.963Z,1000.0
2017-08-09T01:36:02.357Z,999.9
2017-08-09T01:37:03.754Z,999.9
2017-08-09T01:38:05.150Z,1000.0
2017-08-09T01:39:06.547Z,999.9
2017-08-09T01:40:07.940Z,1000.0
2017-08-09T01:41:09.335Z,1000.0
2017-08-09T01:42:10.731Z,1000.0
2017-08-09T01:43:12.126Z,999.9
2017-08-09T01:44:13.523Z,1000.0
2017-08-09T01:45:14.921Z,1000.0
2017-08-09T01:46:16.319Z,1000.0
2017-08-09T01:47:17.715Z,1000.0
2017-08-09T01:48:19.109Z,1000.0
2017-08-09T01:49:20.504Z,1000.0
2017-08-09T01:50:21.900Z,1000.0
2017-08-09T01:51:23.293Z,999.9
2017-08-09T01:52:24.693Z,1000.0
2017-08-09T01:53:26.089Z,999.9
2017-08-09T01:54:27.484Z,1000.0
2017-08-09T01:55:28.879Z,1000.0
2017-08-09T01:56:30.274Z,1000.0
2017-08-09T01:57:31.672Z,1000.0
2017-08-09T01:58:33.072Z,1000.0
2017-08-09T01:59:34.467Z,1000.0
2017-08-09T02:00:35.864Z,1000.0
2017-08-09T02:01:37.257Z,1000.0
2017-08-09T02:02:38.653Z,1000.1
2017-08-09T02:03:40.050Z,1000.1
2017-08-09T02:04:41.443Z,1000.1
2017-08-09T02:05:42.842Z,1000.1
2017-08-09T02:06:44.242Z,1000.1
2017-08-09T02:07:45.635Z,1000.2
2017-08-09T02:08:47.037Z,1000.2
2017-08-09T02:09:48.426Z,1000.1
2017-08-09T02:10:49.821Z,1000.1
2017-08-09T02:11:51.213Z,1000.2
2017-08-09T02:12:52.610Z,1000.2
2017-08-09T02:13:54.010Z,1000.2
2017-08-09T02:14:55.409Z,1000.2
2017-08-09T02:15:56.803Z,1000.2
2017-08-09T02:16:58.195Z,1000.3
2017-08-09T02:17:59.589Z,1000.3
2017-08-09T02:19:00.943Z,1000.3
2017-08-09T02:20:02.342Z,1000.2
2017-08-09T02:21:03.738Z,1000.2
2017-08-09T02:22:05.134Z,1000.3
2017-08-09T02:23:06.529Z,1000.2
2017-08-09T02:24:07.927Z,1000.2
2017-08-09T02:25:09.321Z,1000.3
2017-08-09T02:26:10.718Z,1000.2
2017-08-09T02:27:12.116Z,1000.2
2017-08-09T02:28:13.515Z,1000.2
2017-08-09T02:29:14.908Z,1000.2
2017-08-09T02:30:16.304Z,1000.2
2017-08-09T02:31:17.704Z,1000.2
2017-08-09T02:32:19.093Z,1000.2
2017-08-09T02:33:20.489Z,1000.3
2017-08-09T02:34:21.884Z,1000.3
2017-08-09T02:35:23.281Z,1000.3
2017-08-09T02:36:24.678Z,1000.3
2017-08-09T02:37:26.074Z,1000.3
2017-08-09T02:38:27.471Z,1000.3
2017-08-09T02:39:28.867Z,1000.3
2017-08-09T02:40:30.263Z,1000.3
2017-08-09T02:41:31.657Z,1000.3
2017-08-09T02:42:33.054Z,1000.4
2017-08-09T02:43:34.453Z,1000.4
2017-08-09T02:44:35.846Z,1000.4
2017-08-09T02:45:37.240Z,1000.5
2017-08-09T02:46:38.637Z,1000.5
2017-08-09T02:47:40.070Z,1000.5
2017-08-09T02:48:41.460Z,1000.5
2017-08-09T02:49:42.858Z,1000.5
2017-08-09T02:50:44.256Z,1000.4
2017-08-09T02:51:45.648Z,1000.5
2017-08-09T02:52:47.044Z,1000.5
2017-08-09T02:53:48.439Z,1000.5
2017-08-09T02:54:49.834Z,1000.5
2017-08-09T02:55:51.230Z,1000.5
2017-08-09T02:56:52.627Z,1000.5
2017-08-09T02:57:54.024Z,1000.5
2017-08-09T02:58:55.418Z,1000.5
2017-08-09T02:59:56.812Z,1000.5
2017-08-09T03:00:58.208Z,1000.5
2017-08-09T03:01:59.602Z,1000.5
2017-08-09T03:03:00.998Z,1000.6
2017-08-09T03:04:02.393Z,1000.6
2017-08-09T03:05:03.787Z,1000.6
2017-08-09T03:06:05.183Z,1000.6
2017-08-09T03:07:06.578Z,1000.6
2017-08-09T03:08:07.973Z,1000.6
2017-08-09T03:09:09.368Z,1000.6
2017-08-09T03:10:10.764Z,1000.6
2017-08-09T03:11:12.157Z,1000.6
2017-08-09T03:12:13.555Z,1000.6
2017-08-09T03:13:14.951Z,1000.6
2017-08-09T03:14:16.346Z,1000.6
2017-08-09T03:15:17.741Z,1000.6
2017-08-09T03:16:19.136Z,1000.7
2017-08-09T03:17:20.532Z,1000.7
2017-08-09T03:18:21.927Z,1000.7
2017-08-09T03:19:23.326Z,1000.8
2017-08-09T03:20:24.720Z,1000.8
2017-08-09T03:21:26.115Z,1000.8
2017-08-09T03:22:27.510Z,1000.8
2017-08-09T03:23:28.906Z,1000.8
2017-08-09T03:24:30.301Z,1000.8
2017-08-09T03:25:31.697Z,1000.8
2017-08-09T03:26:33.096Z,1000.8
2017-08-09T03:27:34.493Z,1000.8
2017-08-09T03:28:35.884Z,1000.8
2017-08-09T03:29:37.279Z,1000.9
2017-08-09T03:30:38.677Z,1000.9
2017-08-09T03:31:40.070Z,1000.9
2017-08-09T03:32:41.468Z,1000.9
2017-08-09T03:33:42.866Z,1000.9
2017-08-09T03:34:44.262Z,1000.9
2017-08-09T03:35:45.655Z,1000.9
2017-08-09T03:36:47.052Z,1001.0
2017-08-09T03:37:48.448Z,1000.9
2017-08-09T03:38:49.845Z,1001.0
2017-08-09T03:39:51.243Z,1001.0
2017-08-09T03:40:52.640Z,1001.0
2017-08-09T03:41:54.042Z,1001.0
2017-08-09T03:42:55.436Z,1000.9
2017-08-09T03:43:56.833Z,1001.0
2017-08-09T03:44:58.229Z,1001.0
2017-08-09T03:45:59.624Z,1001.0
2017-08-09T03:47:01.019Z,1001.0
2017-08-09T03:48:02.416Z,1001.0
2017-08-09T03:49:03.812Z,1001.1
2017-08-09T03:50:05.205Z,1001.1
2017-08-09T03:51:06.600Z,1001.1
2017-08-09T03:52:07.994Z,1001.1
2017-08-09T03:53:09.389Z,1001.1
2017-08-09T03:54:10.787Z,1001.1
2017-08-09T03:55:12.186Z,1001.2
2017-08-09T03:56:13.579Z,1001.3
2017-08-09T03:57:14.973Z,1001.2
2017-08-09T03:58:16.370Z,1001.2
2017-08-09T03:59:17.766Z,1001.2
2017-08-09T04:00:19.162Z,1001.2
2017-08-09T04:01:20.559Z,1001.2
2017-08-09T04:02:21.957Z,1001.3
2017-08-09T04:03:23.352Z,1001.2
2017-08-09T04:04:24.747Z,1001.3
2017-08-09T04:05:26.144Z,1001.3
2017-08-09T04:06:27.539Z,1001.3
2017-08-09T04:07:28.937Z,1001.3
2017-08-09T04:08:30.334Z,1001.3
2017-08-09T04:09:31.733Z,1001.4
2017-08-09T04:10:33.130Z,1001.4
2017-08-09T04:11:34.523Z,1001.4
2017-08-09T04:12:35.921Z,1001.5
2017-08-09T04:13:37.315Z,1001.5
2017-08-09T04:14:38.726Z,1001.5
2017-08-09T04:15:40.125Z,1001.5
2017-08-09T04:16:41.522Z,1001.5
2017-08-09T04:17:42.917Z,1001.6
2017-08-09T04:18:44.312Z,1001.5
2017-08-09T04:19:45.711Z,1001.6
2017-08-09T04:20:47.118Z,1001.5
2017-08-09T04:21:48.504Z,1001.5
2017-08-09T04:22:49.945Z,1001.5
2017-08-09T04:23:51.341Z,1001.5
2017-08-09T04:24:52.737Z,1001.5
2017-08-09T04:25:54.129Z,1001.5
2017-08-09T04:26:55.531Z,1001.6
2017-08-09T04:27:56.928Z,1001.5
2017-08-09T04:28:58.324Z,1001.6
2017-08-09T04:29:59.725Z,1001.6
2017-08-09T04:31:01.124Z,1001.6
2017-08-09T04:32:02.520Z,1001.6
2017-08-09T04:33:03.916Z,1001.6
2017-08-09T04:34:05.312Z,1001.7
2017-08-09T04:35:06.712Z,1001.7
2017-08-09T04:36:08.110Z,1001.7
2017-08-09T04:37:09.537Z,1001.7
2017-08-09T04:38:10.936Z,1001.7
2017-08-09T04:39:12.336Z,1001.7
2017-08-09T04:40:13.730Z,1001.7
2017-08-09T04:41:15.136Z,1001.7
2017-08-09T04:42:16.561Z,1001.7
2017-08-09T04:43:17.962Z,1001.6
2017-08-09T04:44:19.363Z,1001.7
2017-08-09T04:45:20.838Z,1001.8
2017-08-09T04:46:22.238Z,1001.8
2017-08-09T04:47:23.635Z,1001.8
2017-08-09T04:48:25.033Z,1001.8
2017-08-09T04:49:26.457Z,1001.8
2017-08-09T04:50:27.856Z,1001.8
2017-08-09T04:51:29.257Z,1001.8
2017-08-09T04:52:30.658Z,1001.8
2017-08-09T04:53:32.063Z,1001.8
2017-08-09T04:54:33.466Z,1001.8
2017-08-09T04:55:34.965Z,1001.8
2017-08-09T04:56:36.353Z,1001.8
2017-08-09T04:57:37.753Z,1001.8
2017-08-09T04:58:39.155Z,1001.8
2017-08-09T04:59:40.553Z,1001.9
2017-08-09T05:00:41.952Z,1001.9
2017-08-09T05:01:43.350Z,1001.9
2017-08-09T05:02:44.748Z,1001.9
2017-08-09T05:03:46.149Z,1001.9
2017-08-09T05:04:47.550Z,1001.9
2017-08-09T05:05:48.955Z,1002.0
2017-08-09T05:06:50.355Z,1002.0
2017-08-09T05:07:51.752Z,1002.0
2017-08-09T05:08:53.149Z,1002.0
2017-08-09T05:09:54.550Z,1002.0
2017-08-09T05:10:55.947Z,1002.0
2017-08-09T05:11:57.349Z,1002.0
2017-08-09T05:12:58.751Z,1001.9
2017-08-09T05:14:00.149Z,1001.9
2017-08-09T05:15:01.551Z,1002.0
2017-08-09T05:16:02.946Z,1001.9
2017-08-09T05:17:04.344Z,1001.9
2017-08-09T05:18:05.741Z,1001.9
2017-08-09T05:19:07.144Z,1001.9
2017-08-09T05:20:08.542Z,1001.9
2017-08-09T05:21:09.942Z,1001.9
2017-08-09T05:22:11.341Z,1001.9
2017-08-09T05:23:12.740Z,1001.9
2017-08-09T05:24:14.139Z,1002.0
2017-08-09T05:25:15.540Z,1002.0
2017-08-09T05:26:16.942Z,1002.0
2017-08-09T05:27:18.342Z,1002.0
2017-08-09T05:28:19.747Z,1002.0
2017-08-09T05:29:21.142Z,1002.0
2017-08-09T05:30:22.538Z,1002.0
2017-08-09T05:31:23.939Z,1002.0
2017-08-09T05:32:25.340Z,1002.1
2017-08-09T05:33:26.740Z,1002.0
2017-08-09T05:34:28.142Z,1002.0
2017-08-09T05:35:29.578Z,1002.0
2017-08-09T05:36:30.973Z,1002.0
2017-08-09T05:37:32.371Z,1002.0
2017-08-09T05:38:33.769Z,1002.0
2017-08-09T05:39:35.167Z,1002.0
2017-08-09T05:40:36.567Z,1002.1
2017-08-09T05:41:37.967Z,1002.1
2017-08-09T05:42:39.367Z,1002.0
2017-08-09T05:43:40.770Z,1002.1
2017-08-09T05:44:42.162Z,1002.0
2017-08-09T05:45:43.562Z,1002.0
2017-08-09T05:46:44.961Z,1002.0
2017-08-09T05:47:46.561Z,1002.0
2017-08-09T05:48:47.959Z,1002.0
2017-08-09T05:49:49.361Z,1002.0
2017-08-09T05:50:50.759Z,1002.0
2017-08-09T05:51:52.186Z,1002.0
2017-08-09T05:52:53.557Z,1002.0
2017-08-09T05:53:54.992Z,1002.1
2017-08-09T05:54:56.391Z,1002.0
2017-08-09T05:55:57.790Z,1002.1
2017-08-09T05:56:59.190Z,1002.1
2017-08-09T05:58:00.588Z,1002.1
2017-08-09T05:59:01.985Z,1002.1
2017-08-09T06:00:03.384Z,1002.1
2017-08-09T06:01:04.784Z,1002.1
2017-08-09T06:02:06.186Z,1002.1
2017-08-09T06:03:07.589Z,1002.1
2017-08-09T06:04:08.989Z,1002.1
2017-08-09T06:05:10.390Z,1002.1
2017-08-09T06:06:11.788Z,1002.1
2017-08-09T06:07:13.189Z,1002.1
2017-08-09T06:08:14.589Z,1002.1
2017-08-09T06:09:15.988Z,1002.1
2017-08-09T06:10:17.392Z,1002.2
2017-08-09T06:11:18.795Z,1002.2
2017-08-09T06:12:20.193Z,1002.2
2017-08-09T06:13:21.591Z,1002.2
2017-08-09T06:14:22.990Z,1002.2
2017-08-09T06:15:24.391Z,1002.2
2017-08-09T06:16:25.793Z,1002.2
2017-08-09T06:17:27.194Z,1002.2
2017-08-09T06:18:28.597Z,1002.2
2017-08-09T06:19:29.998Z,1002.3
2017-08-09T06:20:31.397Z,1002.2
2017-08-09T06:21:32.796Z,1002.2
2017-08-09T06:22:34.195Z,1002.3
2017-08-09T06:23:35.596Z,1002.3
2017-08-09T06:24:37.000Z,1002.2
2017-08-09T06:25:38.402Z,1002.3
2017-08-09T06:26:39.805Z,1002.2
2017-08-09T06:27:41.204Z,1002.2
2017-08-09T06:28:42.604Z,1002.2
2017-08-09T06:29:44.004Z,1002.2
2017-08-09T06:30:45.402Z,1002.3
2017-08-09T06:31:46.807Z,1002.2
2017-08-09T06:32:48.205Z,1002.2
2017-08-09T06:33:49.602Z,1002.2
2017-08-09T06:34:51.004Z,1002.3
2017-08-09T06:35:52.403Z,1002.3
2017-08-09T06:36:53.806Z,1002.3
2017-08-09T06:37:55.205Z,1002.3
2017-08-09T06:38:56.608Z,1002.3
2017-08-09T06:39:58.008Z,1002.3
2017-08-09T06:40:59.405Z,1002.3
2017-08-09T06:42:00.802Z,1002.3
2017-08-09T06:43:02.203Z,1002.3
2017-08-09T06:44:03.600Z,1002.4
2017-08-09T06:45:05.002Z,1002.4
2017-08-09T06:46:06.404Z,1002.4
2017-08-09T06:47:07.807Z,1002.4
2017-08-09T06:48:09.204Z,1002.4
2017-08-09T06:49:10.604Z,1002.4
2017-08-09T06:50:12.004Z,1002.4
2017-08-09T06:51:13.406Z,1002.4
2017-08-09T06:52:14.805Z,1002.5
2017-08-09T06:53:16.234Z,1002.5
2017-08-09T06:54:17.639Z,1002.4
2017-08-09T06:55:19.039Z,1002.5
2017-08-09T06:56:20.435Z,1002.5
2017-08-09T06:57:21.837Z,1002.4
2017-08-09T06:58:23.238Z,1002.5
2017-08-09T06:59:24.642Z,1002.5
2017-08-09T07:00:26.047Z,1002.5
2017-08-09T07:01:27.454Z,1002.4
2017-08-09T07:02:28.852Z,1002.4
2017-08-09T07:03:30.252Z,1002.4
2017-08-09T07:04:31.652Z,1002.4
2017-08-09T07:05:33.051Z,1002.5
2017-08-09T07:06:34.457Z,1002.4
2017-08-09T07:07:35.859Z,1002.5
2017-08-09T07:08:37.261Z,1002.5
2017-08-09T07:09:38.667Z,1002.5
2017-08-09T07:10:40.068Z,1002.5
2017-08-09T07:11:41.470Z,1002.5
2017-08-09T07:12:42.872Z,1002.5
2017-08-09T07:13:44.274Z,1002.6
2017-08-09T07:14:45.675Z,1002.5
2017-08-09T07:15:47.081Z,1002.5
2017-08-09T07:16:48.480Z,1002.5
2017-08-09T07:17:49.883Z,1002.5
2017-08-09T07:18:51.283Z,1002.5
2017-08-09T07:19:52.686Z,1002.5
2017-08-09T07:20:54.087Z,1002.5
2017-08-09T07:21:55.493Z,1002.6
2017-08-09T07:22:56.893Z,1002.6
2017-08-09T07:23:58.296Z,1002.6
2017-08-09T07:24:59.697Z,1002.6
2017-08-09T07:26:01.098Z,1002.6
2017-08-09T07:27:02.524Z,1002.6
2017-08-09T07:28:03.926Z,1002.6
2017-08-09T07:29:05.332Z,1002.6
2017-08-09T07:30:06.736Z,1002.6
2017-08-09T07:31:08.136Z,1002.6
2017-08-09T07:32:09.534Z,1002.6
2017-08-09T07:33:10.944Z,1002.6
2017-08-09T07:34:12.346Z,1002.6
2017-08-09T07:35:13.748Z,1002.7
2017-08-09T07:36:15.151Z,1002.7
2017-08-09T07:37:16.557Z,1002.7
2017-08-09T07:38:17.958Z,1002.7
2017-08-09T07:39:19.357Z,1002.7
2017-08-09T07:40:20.762Z,1002.7
2017-08-09T07:41:22.163Z,1002.8
2017-08-09T07:42:23.564Z,1002.8
2017-08-09T07:43:24.973Z,1002.8
2017-08-09T07:44:26.377Z,1002.8
2017-08-09T07:45:27.778Z,1002.8
2017-08-09T07:46:29.180Z,1002.8
2017-08-09T07:47:30.585Z,1002.8
2017-08-09T07:48:31.983Z,1002.8
2017-08-09T07:49:33.388Z,1002.8
2017-08-09T07:50:34.799Z,1002.8
2017-08-09T07:51:36.195Z,1002.8
2017-08-09T07:52:37.598Z,1002.8
2017-08-09T07:53:38.997Z,1002.8
2017-08-09T07:54:40.397Z,1002.8
2017-08-09T07:55:41.803Z,1002.9
2017-08-09T07:56:43.205Z,1002.9
2017-08-09T07:57:44.610Z,1002.9
2017-08-09T07:58:46.015Z,1002.9
2017-08-09T07:59:47.417Z,1002.9
2017-08-09T08:00:48.818Z,1003.0
2017-08-09T08:01:50.219Z,1002.9
2017-08-09T08:02:51.624Z,1002.9
2017-08-09T08:03:53.027Z,1003.0
2017-08-09T08:04:54.430Z,1003.0
2017-08-09T08:05:55.833Z,1003.0
2017-08-09T08:06:57.233Z,1003.0
2017-08-09T08:07:58.636Z,1003.0
2017-08-09T08:09:00.037Z,1003.0
2017-08-09T08:10:01.438Z,1003.0
2017-08-09T08:11:02.842Z,1003.0
2017-08-09T08:12:04.244Z,1003.0
2017-08-09T08:13:05.648Z,1003.0
2017-08-09T08:14:07.049Z,1003.1
2017-08-09T08:15:08.463Z,1003.1
2017-08-09T08:16:09.867Z,1003.1
2017-08-09T08:17:11.267Z,1003.1
2017-08-09T08:18:12.672Z,1003.1
2017-08-09T08:19:14.076Z,1003.1
2017-08-09T08:20:15.477Z,1003.1
2017-08-09T08:21:16.880Z,1003.1
2017-08-09T08:22:18.279Z,1003.1
2017-08-09T08:23:19.683Z,1003.1
2017-08-09T08:24:21.084Z,1003.1
2017-08-09T08:25:22.488Z,1003.1
2017-08-09T08:26:23.893Z,1003.1
2017-08-09T08:27:25.302Z,1003.2
2017-08-09T08:28:26.698Z,1003.2
2017-08-09T08:29:28.100Z,1003.2
2017-08-09T08:30:29.501Z,1003.2
2017-08-09T08:31:30.905Z,1003.2
2017-08-09T08:32:32.316Z,1003.3
2017-08-09T08:33:33.720Z,1003.2
2017-08-09T08:34:35.126Z,1003.3
2017-08-09T08:35:36.527Z,1003.3
2017-08-09T08:36:37.931Z,1003.3
2017-08-09T08:37:39.333Z,1003.3
2017-08-09T08:38:40.735Z,1003.3
2017-08-09T08:39:42.138Z,1003.2
2017-08-09T08:40:43.544Z,1003.3
2017-08-09T08:41:44.951Z,1003.2
2017-08-09T08:42:46.354Z,1003.3
2017-08-09T08:43:47.754Z,1003.3
2017-08-09T08:44:49.159Z,1003.3
2017-08-09T08:45:50.560Z,1003.3
2017-08-09T08:46:51.965Z,1003.3
2017-08-09T08:47:53.367Z,1003.3
2017-08-09T08:48:54.773Z,1003.3
2017-08-09T08:49:56.177Z,1003.3
2017-08-09T08:50:57.578Z,1003.3
2017-08-09T08:51:58.979Z,1003.3
2017-08-09T08:53:00.382Z,1003.3
2017-08-09T08:54:01.787Z,1003.3
2017-08-09T08:55:03.193Z,1003.3
2017-08-09T08:56:04.598Z,1003.3
2017-08-09T08:57:06.006Z,1003.3
2017-08-09T08:58:07.433Z,1003.3
2017-08-09T08:59:08.836Z,1003.3
2017-08-09T09:00:10.242Z,1003.4
2017-08-09T09:01:11.644Z,1003.3
2017-08-09T09:02:14.962Z,1003.3
2017-08-09T09:03:16.367Z,1003.3
2017-08-09T09:04:17.771Z,1003.3
2017-08-09T09:05:19.171Z,1003.3
2017-08-09T09:06:20.574Z,1003.3
2017-08-09T09:07:21.976Z,1003.3
2017-08-09T09:08:23.382Z,1003.3
2017-08-09T09:09:24.785Z,1003.3
2017-08-09T09:10:26.192Z,1003.3
2017-08-09T09:11:27.595Z,1003.3
2017-08-09T09:12:28.996Z,1003.3
2017-08-09T09:13:30.398Z,1003.3
2017-08-09T09:14:31.801Z,1003.4
2017-08-09T09:15:33.205Z,1003.3
2017-08-09T09:16:34.612Z,1003.3
2017-08-09T09:17:36.015Z,1003.3
2017-08-09T09:18:37.416Z,1003.3
2017-08-09T09:19:38.818Z,1003.4
2017-08-09T09:20:40.223Z,1003.4
2017-08-09T09:21:41.626Z,1003.3
2017-08-09T09:22:43.031Z,1003.3
2017-08-09T09:23:44.437Z,1003.3
2017-08-09T09:24:45.844Z,1003.3
2017-08-09T09:25:47.244Z,1003.3
2017-08-09T09:26:48.646Z,1003.3
2017-08-09T09:27:50.048Z,1003.3
2017-08-09T09:28:51.449Z,1003.3
2017-08-09T09:29:52.857Z,1003.3
2017-08-09T09:30:54.261Z,1003.3
2017-08-09T09:31:55.666Z,1003.3
2017-08-09T09:32:57.067Z,1003.3
2017-08-09T09:33:58.469Z,1003.3
2017-08-09T09:34:59.871Z,1003.4
2017-08-09T09:36:01.275Z,1003.3
2017-08-09T09:37:02.679Z,1003.4
2017-08-09T09:38:04.087Z,1003.4
2017-08-09T09:39:05.493Z,1003.4
2017-08-09T09:40:06.894Z,1003.4
2017-08-09T09:41:08.297Z,1003.3
2017-08-09T09:42:09.704Z,1003.3
2017-08-09T09:43:11.101Z,1003.3
2017-08-09T09:44:12.506Z,1003.4
2017-08-09T09:45:13.916Z,1003.4
2017-08-09T09:46:15.315Z,1003.4
2017-08-09T09:47:16.720Z,1003.4
2017-08-09T09:48:18.125Z,1003.4
2017-08-09T09:49:19.527Z,1003.4
2017-08-09T09:50:20.928Z,1003.4
2017-08-09T09:51:22.337Z,1003.4
2017-08-09T09:52:23.742Z,1003.4
2017-08-09T09:53:25.144Z,1003.4
2017-08-09T09:54:26.547Z,1003.4
2017-08-09T09:55:27.952Z,1003.4
2017-08-09T09:56:29.354Z,1003.4
2017-08-09T09:57:30.762Z,1003.4
2017-08-09T09:58:32.170Z,1003.4
2017-08-09T09:59:33.572Z,1003.5
2017-08-09T10:00:34.975Z,1003.5
2017-08-09T10:01:36.379Z,1003.4
2017-08-09T10:02:37.811Z,1003.5
2017-08-09T10:03:39.216Z,1003.5
2017-08-09T10:04:40.619Z,1003.4
2017-08-09T10:05:42.025Z,1003.4
2017-08-09T10:06:43.440Z,1003.4
2017-08-09T10:07:44.851Z,1003.3
2017-08-09T10:08:46.252Z,1003.4
2017-08-09T10:09:47.656Z,1003.4
2017-08-09T10:10:49.061Z,1003.4
2017-08-09T10:11:50.464Z,1003.4
2017-08-09T10:12:51.867Z,1003.5
2017-08-09T10:13:53.281Z,1003.5
2017-08-09T10:14:54.688Z,1003.5
2017-08-09T10:15:56.092Z,1003.5
2017-08-09T10:16:57.494Z,1003.5
2017-08-09T10:17:58.900Z,1003.5
2017-08-09T10:19:00.302Z,1003.5
2017-08-09T10:20:01.708Z,1003.5
2017-08-09T10:21:03.112Z,1003.5
2017-08-09T10:22:04.517Z,1003.5
2017-08-09T10:23:05.922Z,1003.5
2017-08-09T10:24:07.323Z,1003.5
2017-08-09T10:25:08.728Z,1003.4
2017-08-09T10:26:10.135Z,1003.4
2017-08-09T10:27:11.568Z,1003.4
2017-08-09T10:28:12.973Z,1003.5
2017-08-09T10:29:14.384Z,1003.4
2017-08-09T10:30:15.782Z,1003.5
2017-08-09T10:31:17.190Z,1003.4
2017-08-09T10:32:18.596Z,1003.5
2017-08-09T10:33:20.000Z,1003.5
2017-08-09T10:34:21.412Z,1003.5
2017-08-09T10:35:22.815Z,1003.5
2017-08-09T10:36:24.230Z,1003.5
2017-08-09T10:37:25.627Z,1003.5
2017-08-09T10:38:27.028Z,1003.5
2017-08-09T10:39:28.432Z,1003.5
2017-08-09T10:40:29.836Z,1003.5
2017-08-09T10:41:31.238Z,1003.5
2017-08-09T10:42:32.644Z,1003.6
2017-08-09T10:43:34.062Z,1003.6
2017-08-09T10:44:35.465Z,1003.5
2017-08-09T10:45:36.873Z,1003.6
2017-08-09T10:46:38.268Z,1003.5
2017-08-09T10:47:39.672Z,1003.5
2017-08-09T10:48:41.081Z,1003.5
2017-08-09T10:49:42.487Z,1003.5
2017-08-09T10:50:43.890Z,1003.5
2017-08-09T10:51:45.297Z,1003.5
2017-08-09T10:52:46.700Z,1003.5
2017-08-09T10:53:48.102Z,1003.5
2017-08-09T10:54:49.507Z,1003.5
2017-08-09T10:55:50.910Z,1003.5
2017-08-09T10:56:52.317Z,1003.5
2017-08-09T10:57:53.725Z,1003.5
2017-08-09T10:58:55.128Z,1003.5
2017-08-09T10:59:56.537Z,1003.4
2017-08-09T11:00:57.939Z,1003.5
2017-08-09T11:01:59.353Z,1003.5
2017-08-09T11:03:00.758Z,1003.4
2017-08-09T11:04:02.164Z,1003.4
2017-08-09T11:05:03.572Z,1003.4
2017-08-09T11:06:04.972Z,1003.4
2017-08-09T11:07:06.376Z,1003.4
2017-08-09T11:08:07.780Z,1003.5
2017-08-09T11:09:09.189Z,1003.4
2017-08-09T11:10:10.595Z,1003.5
2017-08-09T11:11:12.003Z,1003.5
2017-08-09T11:12:13.416Z,1003.5
2017-08-09T11:13:14.820Z,1003.5
2017-08-09T11:14:16.224Z,1003.5
2017-08-09T11:15:17.634Z,1003.5
2017-08-09T11:16:19.040Z,1003.5
2017-08-09T11:17:20.449Z,1003.4
2017-08-09T11:18:21.868Z,1003.4
2017-08-09T11:19:23.269Z,1003.5
2017-08-09T11:20:24.677Z,1003.4
2017-08-09T11:21:26.078Z,1003.5
2017-08-09T11:22:27.490Z,1003.5
2017-08-09T11:23:28.895Z,1003.5
2017-08-09T11:24:30.303Z,1003.5
2017-08-09T11:25:31.714Z,1003.5
2017-08-09T11:26:33.125Z,1003.5
2017-08-09T11:27:34.535Z,1003.5
2017-08-09T11:28:35.937Z,1003.5
2017-08-09T11:29:37.346Z,1003.5
2017-08-09T11:30:38.753Z,1003.5
2017-08-09T11:31:40.158Z,1003.5
2017-08-09T11:32:41.567Z,1003.5
2017-08-09T11:33:42.976Z,1003.5
2017-08-09T11:34:44.382Z,1003.4
2017-08-09T11:35:45.788Z,1003.4
2017-08-09T11:36:47.195Z,1003.5
2017-08-09T11:37:48.601Z,1003.5
2017-08-09T11:38:50.008Z,1003.6
2017-08-09T11:39:51.420Z,1003.6
2017-08-09T11:40:52.830Z,1003.6
2017-08-09T11:41:54.234Z,1003.6
2017-08-09T11:42:55.642Z,1003.5
2017-08-09T11:43:57.049Z,1003.6
2017-08-09T11:44:58.456Z,1003.6
2017-08-09T11:45:59.869Z,1003.7
2017-08-09T11:47:01.280Z,1003.6
2017-08-09T11:48:02.690Z,1003.7
2017-08-09T11:49:04.096Z,1003.7
2017-08-09T11:50:05.504Z,1003.6
2017-08-09T11:51:06.911Z,1003.6
2017-08-09T11:52:08.317Z,1003.6
2017-08-09T11:53:09.723Z,1003.6
2017-08-09T11:54:11.132Z,1003.6
2017-08-09T11:55:12.540Z,1003.6
2017-08-09T11:56:13.943Z,1003.6
2017-08-09T11:57:15.347Z,1003.6
2017-08-09T11:58:16.752Z,1003.5
2017-08-09T11:59:18.157Z,1003.5
2017-08-09T12:00:19.565Z,1003.6
2017-08-09T12:01:20.972Z,1003.6
2017-08-09T12:02:22.384Z,1003.6
2017-08-09T12:03:23.790Z,1003.6
2017-08-09T12:04:25.197Z,1003.6
2017-08-09T12:05:26.604Z,1003.6
2017-08-09T12:06:28.010Z,1003.6
2017-08-09T12:07:29.418Z,1003.6
2017-08-09T12:08:30.828Z,1003.6
2017-08-09T12:09:32.235Z,1003.5
2017-08-09T12:10:33.640Z,1003.6
2017-08-09T12:11:35.048Z,1003.6
2017-08-09T12:12:36.458Z,1003.7
2017-08-09T12:13:37.861Z,1003.6
2017-08-09T12:14:39.273Z,1003.7
2017-08-09T12:15:40.685Z,1003.6
2017-08-09T12:16:42.096Z,1003.6
2017-08-09T12:17:43.505Z,1003.6
2017-08-09T12:18:44.913Z,1003.5
2017-08-09T12:19:46.316Z,1003.6
2017-08-09T12:20:47.725Z,1003.5
2017-08-09T12:21:49.134Z,1003.4
2017-08-09T12:22:50.541Z,1003.3
2017-08-09T12:23:51.953Z,1003.5
2017-08-09T12:24:53.358Z,1003.5
2017-08-09T12:25:54.770Z,1003.4
2017-08-09T12:26:56.181Z,1003.4
2017-08-09T12:27:57.590Z,1003.4
2017-08-09T12:28:58.999Z,1003.5
2017-08-09T12:30:00.411Z,1003.4
2017-08-09T12:31:01.825Z,1003.5
2017-08-09T12:32:03.236Z,1003.5
2017-08-09T12:33:04.643Z,1003.4
2017-08-09T12:34:06.057Z,1003.5
2017-08-09T12:35:07.469Z,1003.3
2017-08-09T12:36:08.878Z,1003.4
2017-08-09T12:37:10.287Z,1003.3
2017-08-09T12:38:11.697Z,1003.3
2017-08-09T12:39:13.108Z,1003.4
2017-08-09T12:40:14.515Z,1003.6
2017-08-09T12:41:15.923Z,1003.4
2017-08-09T12:42:17.332Z,1003.4
2017-08-09T12:43:18.742Z,1003.4
2017-08-09T12:44:20.151Z,1003.4
2017-08-09T12:45:21.558Z,1003.3
2017-08-09T12:46:22.969Z,1003.3
2017-08-09T12:47:24.377Z,1003.4
2017-08-09T12:48:25.785Z,1003.3